createdAt,value
2019-01-27T00:01:28.334Z,5.95
2019-01-27T00:06:34.410Z,9.45
2019-01-27T00:11:40.248Z,3.75
2019-01-27T00:16:47.282Z,6.37
2019-01-27T00:21:52.751Z,15.63
2019-01-27T00:26:58.653Z,21.37
2019-01-27T00:32:02.912Z,18.60
2019-01-27T00:37:08.834Z,23.73
2019-01-27T00:42:13.472Z,24.07
2019-01-27T00:47:18.161Z,19.50
2019-01-27T00:52:25.906Z,12.18
2019-01-27T00:57:30.902Z,6.72
2019-01-27T01:02:37.984Z,8.00
2019-01-27T01:07:46.660Z,9.30
2019-01-27T01:12:52.873Z,11.00
2019-01-27T01:17:58.475Z,10.90
2019-01-27T01:23:03.142Z,11.15
2019-01-27T01:28:08.281Z,9.60
2019-01-27T01:33:12.614Z,10.05
2019-01-27T01:38:20.355Z,41.83
2019-01-27T01:43:25.219Z,7.33
2019-01-27T01:48:33.363Z,11.25
2019-01-27T01:53:39.159Z,8.83
2019-01-27T01:58:44.664Z,13.28
2019-01-27T02:03:50.388Z,11.75
2019-01-27T02:08:56.082Z,14.53
2019-01-27T02:14:03.029Z,12.75
2019-01-27T02:19:07.727Z,12.63
2019-01-27T02:24:12.940Z,13.20
2019-01-27T02:29:20.366Z,14.75
2019-01-27T02:34:26.450Z,15.50
2019-01-27T02:39:32.679Z,12.40
2019-01-27T02:44:37.113Z,12.20
2019-01-27T02:49:42.494Z,13.95
2019-01-27T02:54:47.120Z,8.33
2019-01-27T02:59:52.834Z,10.72
2019-01-27T03:04:58.853Z,13.62
2019-01-27T03:10:05.027Z,12.20
2019-01-27T03:15:10.534Z,12.70
2019-01-27T03:20:15.182Z,10.00
2019-01-27T03:25:19.488Z,11.20
2019-01-27T03:30:26.434Z,11.60
2019-01-27T03:35:32.217Z,13.22
2019-01-27T03:40:38.848Z,10.48
2019-01-27T03:45:43.844Z,11.45
2019-01-27T03:50:48.404Z,10.53
2019-01-27T03:55:53.765Z,10.20
2019-01-27T04:00:58.155Z,11.18
2019-01-27T04:06:03.044Z,8.80
2019-01-27T04:11:07.939Z,12.35
2019-01-27T04:16:13.390Z,11.05
2019-01-27T04:21:17.954Z,11.73
2019-01-27T04:26:22.018Z,8.73
2019-01-27T04:31:26.432Z,9.65
2019-01-27T04:36:31.329Z,9.50
2019-01-27T04:41:38.291Z,12.07
2019-01-27T04:46:42.845Z,9.20
2019-01-27T04:51:47.169Z,11.75
2019-01-27T04:56:53.567Z,8.73
2019-01-27T05:01:59.425Z,9.30
2019-01-27T05:07:04.067Z,6.72
2019-01-27T05:12:08.394Z,9.20
2019-01-27T05:17:13.797Z,8.23
2019-01-27T05:22:20.703Z,10.50
2019-01-27T05:27:25.719Z,7.12
2019-01-27T05:32:50.348Z,22.15
2019-01-27T05:37:55.278Z,28.52
2019-01-27T05:43:00.630Z,30.48
2019-01-27T05:48:04.834Z,25.92
2019-01-27T05:53:10.866Z,28.35
2019-01-27T05:58:15.068Z,28.75
2019-01-27T06:03:19.944Z,25.72
2019-01-27T06:08:23.997Z,39.85
2019-01-27T06:13:33.330Z,29.67
2019-01-27T06:18:38.619Z,33.28
2019-01-27T06:23:43.724Z,34.30
2019-01-27T06:28:48.458Z,37.65
2019-01-27T06:34:06.313Z,31.45
2019-01-27T06:39:10.613Z,42.75
2019-01-27T06:44:15.224Z,30.32
2019-01-27T06:49:19.709Z,34.33
2019-01-27T06:54:23.970Z,27.07
2019-01-27T06:59:58.103Z,26.77
2019-01-27T07:05:15.452Z,33.83
2019-01-27T07:10:42.865Z,34.45
2019-01-27T07:16:12.542Z,30.37
2019-01-27T07:21:27.124Z,31.95
2019-01-27T07:26:53.505Z,31.55
2019-01-27T07:32:20.587Z,31.95
2019-01-27T07:37:36.370Z,33.88
2019-01-27T07:42:50.036Z,31.35
2019-01-27T07:48:23.218Z,38.73
2019-01-27T07:53:58.740Z,40.48
2019-01-27T07:59:33.608Z,37.93
2019-01-27T08:05:03.113Z,34.00
2019-01-27T08:10:36.976Z,36.65
2019-01-27T08:16:06.784Z,37.50
2019-01-27T08:21:40.105Z,34.03
2019-01-27T08:26:55.613Z,36.58
2019-01-27T08:32:06.974Z,41.92
2019-01-27T08:37:25.297Z,34.60
2019-01-27T08:42:48.805Z,34.10
2019-01-27T08:47:52.864Z,32.00
2019-01-27T08:52:57.238Z,32.42
2019-01-27T08:58:01.438Z,26.35
2019-01-27T09:03:16.908Z,25.85
2019-01-27T09:08:50.098Z,30.43
2019-01-27T09:14:10.911Z,31.17
2019-01-27T09:19:33.902Z,32.05
2019-01-27T09:24:49.223Z,33.58
2019-01-27T09:30:13.307Z,29.42
2019-01-27T09:35:27.821Z,29.87
2019-01-27T09:40:52.066Z,36.03
2019-01-27T09:46:22.365Z,42.93
2019-01-27T09:51:51.436Z,40.00
2019-01-27T09:57:18.054Z,38.05
2019-01-27T10:02:47.332Z,52.23
2019-01-27T10:08:13.344Z,37.38
2019-01-27T10:13:30.908Z,39.00
2019-01-27T10:19:00.835Z,39.88
2019-01-27T10:24:23.378Z,41.45
2019-01-27T10:30:02.842Z,31.15
2019-01-27T10:35:21.506Z,33.10
2019-01-27T10:40:54.778Z,26.93
2019-01-27T10:46:27.394Z,29.12
2019-01-27T10:51:44.126Z,32.73
2019-01-27T10:57:03.441Z,58.23
2019-01-27T11:02:36.716Z,32.00
2019-01-27T11:07:55.399Z,43.92
2019-01-27T11:13:31.512Z,37.45
2019-01-27T11:18:58.423Z,34.08
2019-01-27T11:24:23.080Z,31.50
2019-01-27T11:29:47.570Z,41.90
2019-01-27T11:35:26.179Z,32.10
2019-01-27T11:41:08.839Z,39.15
2019-01-27T11:46:31.207Z,32.23
2019-01-27T11:51:49.061Z,38.98
2019-01-27T11:56:54.171Z,27.50
2019-01-27T12:01:59.437Z,33.35
2019-01-27T12:07:07.133Z,38.00
2019-01-27T12:12:15.578Z,32.13
2019-01-27T12:17:22.218Z,26.35
2019-01-27T12:22:28.165Z,31.00
2019-01-27T12:27:33.780Z,49.42
2019-01-27T12:32:49.016Z,66.57
2019-01-27T12:37:54.623Z,31.48
2019-01-27T12:43:02.262Z,69.58
2019-01-27T12:48:06.559Z,43.45
2019-01-27T12:53:12.628Z,32.70
2019-01-27T12:58:17.113Z,22.90
2019-01-27T13:03:23.945Z,34.67
2019-01-27T13:08:28.225Z,24.77
2019-01-27T13:13:32.420Z,28.15
2019-01-27T13:18:36.461Z,25.30
2019-01-27T13:23:40.668Z,21.40
2019-01-27T13:28:44.807Z,25.25
2019-01-27T13:33:50.377Z,23.65
2019-01-27T13:38:54.416Z,33.15
2019-01-27T13:43:58.501Z,24.92
2019-01-27T13:49:02.682Z,30.85
2019-01-27T13:54:06.654Z,24.85
2019-01-27T14:01:26.552Z,33.13
2019-01-27T14:06:49.045Z,27.70
2019-01-27T14:12:12.919Z,39.27
2019-01-27T14:17:36.648Z,32.80
2019-01-27T14:24:42.565Z,40.90
2019-01-27T14:30:07.035Z,40.17
2019-01-27T14:35:29.515Z,35.05
2019-01-27T14:40:34.380Z,55.03
2019-01-27T14:45:39.819Z,42.17
2019-01-27T14:50:46.298Z,44.83
2019-01-27T14:55:50.306Z,51.85
2019-01-27T15:00:54.543Z,40.75
2019-01-27T15:05:59.461Z,51.80
2019-01-27T15:11:21.895Z,44.53
2019-01-27T15:16:26.275Z,33.15
2019-01-27T15:21:30.507Z,41.63
2019-01-27T15:26:35.509Z,37.53
2019-01-27T15:31:39.895Z,41.18
2019-01-27T15:41:40.428Z,30.50
2019-01-27T15:46:45.834Z,24.92
2019-01-27T15:51:49.583Z,30.80
2019-01-27T15:56:53.642Z,28.73
2019-01-27T16:01:57.408Z,28.90
2019-01-27T16:07:01.242Z,25.92
2019-01-27T16:12:05.640Z,29.10
2019-01-27T16:17:09.613Z,30.55
2019-01-27T16:22:14.306Z,31.87
2019-01-27T16:27:18.075Z,32.48
2019-01-27T16:32:34.965Z,35.20
2019-01-27T16:37:40.093Z,31.95
2019-01-27T16:42:44.409Z,42.80
2019-01-27T16:47:49.354Z,36.63
2019-01-27T16:53:03.983Z,40.08
2019-01-27T16:58:07.881Z,32.25
2019-01-27T17:03:11.662Z,39.00
2019-01-27T17:08:17.823Z,40.00
2019-01-27T17:13:22.974Z,59.88
2019-01-27T17:18:29.271Z,30.17
2019-01-27T17:23:34.110Z,32.00
2019-01-27T17:28:43.023Z,44.38
2019-01-27T17:33:56.000Z,30.48
2019-01-27T17:39:09.466Z,26.90
2019-01-27T17:44:15.598Z,28.17
2019-01-27T17:49:20.246Z,20.30
2019-01-27T17:54:26.789Z,23.20
2019-01-27T17:59:40.011Z,32.55
2019-01-27T18:04:53.643Z,31.10
2019-01-27T18:10:31.369Z,44.58
2019-01-27T18:15:44.008Z,56.18
2019-01-27T18:20:52.933Z,43.10
2019-01-27T18:25:58.717Z,35.65
2019-01-27T18:31:03.131Z,32.93
2019-01-27T18:36:09.680Z,41.90
2019-01-27T18:41:17.243Z,31.12
2019-01-27T18:46:22.085Z,40.80
2019-01-27T18:51:29.815Z,41.73
2019-01-27T18:57:05.648Z,41.53
2019-01-27T19:02:32.212Z,54.53
2019-01-27T19:08:01.165Z,57.25
2019-01-27T19:13:32.079Z,50.00
2019-01-27T19:19:03.316Z,44.67
2019-01-27T19:24:33.492Z,39.92
2019-01-27T19:30:02.625Z,36.40
2019-01-27T19:35:21.806Z,33.78
2019-01-27T19:40:45.821Z,45.43
2019-01-27T19:46:16.529Z,41.88
2019-01-27T19:51:43.668Z,46.98
2019-01-27T19:57:22.192Z,32.25
2019-01-27T20:02:36.708Z,42.73
2019-01-27T20:08:00.764Z,38.80
2019-01-27T20:13:17.041Z,39.67
2019-01-27T20:18:39.229Z,27.45
2019-01-27T20:23:55.853Z,30.92
2019-01-27T20:29:31.620Z,28.90
2019-01-27T20:35:10.872Z,36.28
2019-01-27T20:40:35.938Z,37.30
2019-01-27T20:45:59.064Z,39.33
2019-01-27T20:51:34.786Z,42.25
2019-01-27T20:56:45.485Z,37.28
2019-01-27T21:02:24.930Z,39.88
2019-01-27T21:08:00.854Z,48.70
2019-01-27T21:13:11.218Z,56.28
2019-01-27T21:18:26.859Z,38.33
2019-01-27T21:23:31.435Z,41.63
2019-01-27T21:28:36.469Z,40.48
2019-01-27T21:33:40.533Z,30.20
2019-01-27T21:38:45.721Z,31.07
2019-01-27T21:43:50.866Z,38.98
2019-01-27T21:48:58.002Z,43.92
2019-01-27T21:54:03.474Z,36.42
2019-01-27T21:59:07.795Z,33.02
2019-01-27T22:04:12.543Z,35.17
2019-01-27T22:09:18.122Z,37.70
2019-01-27T22:14:22.138Z,37.88
2019-01-27T22:19:26.703Z,38.08
2019-01-27T22:24:32.579Z,30.10
2019-01-27T22:29:37.783Z,49.05
2019-01-27T22:34:45.521Z,55.78
2019-01-27T22:39:50.543Z,52.03
2019-01-27T22:44:56.050Z,51.18
2019-01-27T22:50:01.633Z,48.58
2019-01-27T22:55:07.103Z,58.40
2019-01-27T23:00:21.503Z,80.25
2019-01-27T23:05:35.782Z,60.12
2019-01-27T23:10:40.246Z,56.28
2019-01-27T23:15:44.725Z,63.38
2019-01-27T23:20:48.575Z,59.45
2019-01-27T23:25:53.678Z,47.65
2019-01-27T23:31:01.939Z,39.27
2019-01-27T23:36:06.683Z,41.65
2019-01-27T23:41:11.247Z,44.48
2019-01-27T23:46:16.291Z,40.75
2019-01-27T23:51:22.294Z,45.00
2019-01-27T23:56:28.300Z,40.90
